»·PEaware :: N893MA KPHX-KFMN

N893MA :: KPHX-KFMN

FLIGHT INFORMATION

Flight Status: Arrived
Operator: Privately registered:
United States
More flights under this callsign
Pilot: Jone M. (10385)
Aircraft: SOCATA TBM-900
(TBM9)
More flights by this aircraft type
Origin: KPHX Phoenix Sky Harbor Intl
United States
Destination: KFMN Four Corners Regl
United States
More flights between these airports :: More routes between these airports
Route: MRBIL1 JARPA RSK
File this flight plan on PilotEdge
Remarks:
Altitude:
(Current/Filed)
25,000ft
Speed:
(Current/Filed)
270kts
Departed: 17-Jan-20 11:50 AM
Arrived: 17-Jan-20 12:56 PM
Distance/Time
Traveled:
272nm/1:06
Distance/Time
To Go:
Arrived

Flight Plot

Page will automatically refresh every two minutes.

Flight plan parsing failed; only flown route is shown


Map Options




Map Legend


Flown Route
Filed Route
Departure Airport
Arrival Airport
Navaid (VOR, NDB)
Fix

Horizontal Profiles

Position Reports

Time Latitude Longitude Heading Altitude Ground
Speed
17-Jan-20 11:25 33.425659 -112.020752 356 1112ft 0kts
17-Jan-20 11:26 33.425659 -112.020752 356 1112ft 0kts
17-Jan-20 11:27 33.426654 -112.023858 218 1112ft 0kts
17-Jan-20 11:28 33.426717 -112.023996 359 1112ft 0kts
17-Jan-20 11:29 33.426718 -112.023996 359 1112ft 0kts
17-Jan-20 11:30 33.426718 -112.023996 359 1112ft 0kts
17-Jan-20 11:31 33.426718 -112.023996 359 1112ft 0kts
17-Jan-20 11:32 33.426718 -112.023996 359 1112ft 0kts
17-Jan-20 11:34 33.426718 -112.023996 359 1112ft 0kts
17-Jan-20 11:35 33.426718 -112.023996 359 1112ft 0kts
17-Jan-20 11:36 33.426718 -112.023996 359 1112ft 0kts
17-Jan-20 11:37 33.426718 -112.023996 359 1112ft 0kts
17-Jan-20 11:38 33.426718 -112.023996 359 1112ft 0kts
17-Jan-20 11:39 33.426718 -112.023996 359 1112ft 0kts
17-Jan-20 11:40 33.426718 -112.023996 359 1112ft 0kts
17-Jan-20 11:41 33.426718 -112.023996 359 1112ft 0kts
17-Jan-20 11:42 33.426718 -112.023996 359 1112ft 0kts
17-Jan-20 11:43 33.426718 -112.023996 359 1112ft 0kts
17-Jan-20 11:44 33.426718 -112.023996 359 1112ft 0kts
17-Jan-20 11:45 33.426718 -112.023996 359 1112ft 0kts
17-Jan-20 11:46 33.426739 -112.023997 358 1112ft 0kts
17-Jan-20 11:47 33.427040 -112.024165 330 1112ft 1kts
17-Jan-20 11:48 33.427763 -112.024945 269 1112ft 7kts
17-Jan-20 11:49 33.427778 -112.026612 278 1109ft 0kts
17-Jan-20 11:50 33.428861 -112.024896 88 1112ft 57kts
17-Jan-20 11:51 33.428496 -111.980523 85 2332ft 168kts
17-Jan-20 11:52 33.433698 -111.926444 85 4673ft 167kts
17-Jan-20 11:53 33.448701 -111.873779 8 6123ft 182kts
17-Jan-20 11:53 33.490591 -111.866153 3 7334ft 189kts
17-Jan-20 11:55 33.549483 -111.855328 2 9784ft 185kts
17-Jan-20 11:56 33.599846 -111.846066 0 11935ft 182kts
17-Jan-20 11:56 33.639775 -111.838745 358 13692ft 181kts
17-Jan-20 11:58 33.696894 -111.821909 4 15818ft 190kts
17-Jan-20 11:58 33.739721 -111.807988 2 17774ft 190kts
17-Jan-20 11:59 33.790572 -111.791489 1 20391ft 192kts
17-Jan-20 12:01 33.847977 -111.742359 25 22570ft 237kts
17-Jan-20 12:01 33.892481 -111.701410 24 23861ft 248kts
17-Jan-20 12:02 33.946237 -111.651923 24 25246ft 256kts
17-Jan-20 12:03 34.006548 -111.596971 21 25258ft 289kts
17-Jan-20 12:04 34.076266 -111.543775 20 25252ft 301kts
17-Jan-20 12:05 34.146243 -111.491954 19 25254ft 304kts
17-Jan-20 12:06 34.216933 -111.435723 22 25255ft 307kts
17-Jan-20 12:07 34.288693 -111.380042 21 25253ft 307kts
17-Jan-20 12:08 34.359725 -111.325143 22 25244ft 306kts
17-Jan-20 12:09 34.430110 -111.270615 21 25246ft 306kts
17-Jan-20 12:10 34.498725 -111.217375 22 25243ft 306kts
17-Jan-20 12:11 34.568949 -111.162773 22 25244ft 306kts
17-Jan-20 12:12 34.634899 -111.107389 34 25204ft 318kts
17-Jan-20 12:13 34.695507 -111.033936 35 25194ft 320kts
17-Jan-20 12:14 34.760651 -110.955057 36 25190ft 324kts
17-Jan-20 12:15 34.819839 -110.883257 37 25192ft 328kts
17-Jan-20 12:16 34.881321 -110.808463 37 25192ft 333kts
17-Jan-20 12:17 34.942201 -110.734214 35 25194ft 334kts
17-Jan-20 12:18 35.011467 -110.649618 34 25194ft 332kts
17-Jan-20 12:19 35.076058 -110.570575 33 25193ft 330kts
17-Jan-20 12:20 35.139491 -110.492735 33 25201ft 329kts
17-Jan-20 12:21 35.203455 -110.414052 33 25200ft 329kts
17-Jan-20 12:22 35.265389 -110.337679 34 25188ft 329kts
17-Jan-20 12:23 35.329443 -110.258506 34 25191ft 332kts
17-Jan-20 12:24 35.393923 -110.178596 34 25187ft 334kts
17-Jan-20 12:25 35.459308 -110.097424 34 25187ft 335kts
17-Jan-20 12:26 35.523550 -110.017404 34 25172ft 335kts
17-Jan-20 12:27 35.587871 -109.937140 34 25159ft 335kts
17-Jan-20 12:28 35.652087 -109.856808 34 25152ft 335kts
17-Jan-20 12:29 35.715100 -109.774761 41 25155ft 341kts
17-Jan-20 12:30 35.772875 -109.683275 42 25160ft 342kts
17-Jan-20 12:31 35.830032 -109.592455 42 25161ft 342kts
17-Jan-20 12:32 35.887258 -109.501278 42 25048ft 345kts
17-Jan-20 12:33 35.941577 -109.414381 41 24086ft 313kts
17-Jan-20 12:34 35.991776 -109.334098 42 23113ft 301kts
17-Jan-20 12:35 36.041979 -109.253528 42 22099ft 301kts
17-Jan-20 12:36 36.091481 -109.173886 43 21092ft 297kts
17-Jan-20 12:37 36.140473 -109.094889 44 20101ft 292kts
17-Jan-20 12:38 36.189069 -109.016325 45 19155ft 283kts
17-Jan-20 12:39 36.235097 -108.941734 45 18554ft 270kts
17-Jan-20 12:40 36.280782 -108.867559 45 17661ft 267kts
17-Jan-20 12:41 36.325471 -108.794835 45 17079ft 265kts
17-Jan-20 12:42 36.369756 -108.722633 45 16462ft 261kts
17-Jan-20 12:43 36.413416 -108.651303 45 15506ft 257kts
17-Jan-20 12:44 36.457104 -108.581716 38 14607ft 249kts
17-Jan-20 12:45 36.505750 -108.521563 36 13609ft 244kts
17-Jan-20 12:46 36.551807 -108.464777 36 11995ft 235kts
17-Jan-20 12:47 36.598996 -108.409163 38 9956ft 230kts
17-Jan-20 12:48 36.632621 -108.344846 68 8956ft 232kts
17-Jan-20 12:49 36.648338 -108.268103 77 8812ft 226kts
17-Jan-20 12:50 36.668119 -108.192973 53 8221ft 217kts
17-Jan-20 12:51 36.712625 -108.162485 3 7646ft 172kts
17-Jan-20 12:52 36.747817 -108.164720 314 6626ft 89kts
17-Jan-20 12:53 36.755164 -108.188665 258 6378ft 76kts
17-Jan-20 12:54 36.748513 -108.212005 245 5792ft 76kts
17-Jan-20 12:55 36.741155 -108.231395 245 5506ft 22kts
17-Jan-20 12:56 36.740546 -108.229517 88 5506ft 18kts
17-Jan-20 12:57 36.739583 -108.226130 131 5506ft 9kts
17-Jan-20 12:58 36.739290 -108.226321 269 5506ft 0kts

Navigation Log

Ident Type
Flight plan parsing failed, navigation log unavailable